Terminal Aerodrome Forecast
Issued by NWS Wakefield, VA

Home | Current Version | Previous Version | Text Only | Print | Product List | Glossary On
Versions: 1 2 3 4 5 6 7 8 9 10 11 12 13 14 15 16 17
000
FTUS41 KAKQ 250539
TAFORF
TAF
KORF 250539Z 2506/2606 15011KT 6SM -DZ OVC007
     FM250900 16008KT 3SM -DZ OVC004
     FM251300 19007KT P6SM BKN010
     FM251500 21007KT P6SM BKN020
     FM251700 21007KT P6SM BKN035
     FM252000 25008KT 6SM -SHRA BKN040
     FM260100 28007KT P6SM BKN050=

USA.gov is the U.S. government's official web portal to all federal, state and local government web resources and services.